CheckWX is a tool to help pilots better visualize weather data.  It is not intended as a substitute for an official pre-flight weather briefing.

18:53:27 UTC

3AU METAR
Augusta Municipal Airport
Augusta, Kansas, USA
Current

18 mins ago

K3AU 271835Z AUTO 05009KT 360V060 10SM CLR 08/01 A3002 RMK AO2
Observed
Jan-27 @ 18:35 UTC
Wind
  • 050° at 9 KTS
Visibility
10 SM
Flight Rules
VFR
Cloud Levels
  • Clear skies
Temperature
C / 46°F
Dewpoint
C / 34°F
Humidity
62%
Altimeter
30.02" Hg
Pressure
1016.62 hPa
Previous

38 mins ago

K3AU 271815Z AUTO 04011KT 10SM CLR 07/01 A3003 RMK AO2
Observed
Jan-27 @ 18:15 UTC
Wind
  • 040° at 11 KTS
Visibility
10 SM
Flight Rules
VFR
Cloud Levels
  • Clear skies
Temperature
C / 45°F
Dewpoint
C / 34°F
Humidity
66%
Altimeter
30.03" Hg
Pressure
1016.92 hPa
Previous

58 mins ago

K3AU 271755Z AUTO 06010KT 7SM CLR 07/01 A3004 RMK AO2
Observed
Jan-27 @ 17:55 UTC
Wind
  • 060° at 10 KTS
Visibility
7 SM
Flight Rules
VFR
Cloud Levels
  • Clear skies
Temperature
C / 45°F
Dewpoint
C / 34°F
Humidity
66%
Altimeter
30.04" Hg
Pressure
1017.32 hPa